John Wayne Airport-Orange County Airport Santa Ana US
ICAO: KSNA
IATA: SNA
Category: Large
Scheduled Services: Yes

Elevation: 56 ft
TransAlt. 18000 ft.

Airport Communications:
SOCAL APP:38.02
SOCAL APP:121.3
ATIS:126
CLNC DEL:118
CTAF:126.8
SOCAL DEP:128.1
GND:120.8
RIVERSIDE RDO:122.45
TWR:119.9
UNICOM:122.95

KSNA Zoom In..

Runways:

(A) RW 01L length 5701 ft width 150 ft
---- / hdg 14

(B) RW 01R length 2887 ft width 75 ft
---- / hdg 14

(C) RW 19L length 2887 ft width 75 ft
---- / hdg 194

(D) RW 19R length 5701 ft width 150 ft
ILS 111.75 / hdg 194

Location; KSNA
Day. 03 / Time. 09.53 Zulu
* Altimeter: 30.13
* Temperature: 18° c. 64.4°f.
* Wind from: 030° Speed 10 kn.
Dewpoint: -12° c.
Visibility: 10 Statute Miles.
Clouds: Few 4400 ft.

KSNA 030953Z AUTO 03010KT 10SM FEW044 18/M12 A3013 RMK AO2 SLP201 T01831122

Going to: --> -->


Wind From 030°
Speed 10 kn.

 
 
jpsmedia worldairports.se 2020   terms of use